Time;durP1;ratioP1;P1;durP2;ratioP2;P2;SDS_P1;SDS_P2;PMS_P1;PMS_P2;Temp;Humidity;BMP_temperature;BMP_pressure;BME280_temperature;BME280_humidity;BME280_pressure;Samples;Min_cycle;Max_cycle;Signal;HPM_P1;HPM_P2
2022/07/19 00:00:01;;;;;;;6.97;3.70;;;;;;;19.14;48.16;99073.03;5087901;28;20024;-74
2022/07/19 00:02:27;;;;;;;7.55;4.13;;;;;;;19.12;48.14;99069.78;5087333;28;20036;-74
2022/07/19 00:04:52;;;;;;;7.28;3.90;;;;;;;19.12;48.25;99071.75;5086593;28;20066;-74
2022/07/19 00:07:17;;;;;;;7.53;3.75;;;;;;;19.13;48.52;99078.94;5086845;28;20050;-75
2022/07/19 00:09:43;;;;;;;8.48;4.28;;;;;;;19.11;48.79;99086.78;5086429;28;20024;-74
2022/07/19 00:12:08;;;;;;;9.98;4.20;;;;;;;19.03;48.57;99083.72;5086527;28;20408;-75
2022/07/19 00:14:33;;;;;;;8.60;4.25;;;;;;;19.00;48.46;99081.63;5088190;28;20020;-74
2022/07/19 00:16:59;;;;;;;7.05;4.03;;;;;;;18.98;48.51;99080.34;5090266;28;20070;-73
2022/07/19 00:19:24;;;;;;;9.40;4.22;;;;;;;18.99;48.61;99082.78;5088979;28;20443;-75
2022/07/19 00:21:50;;;;;;;7.88;3.97;;;;;;;19.00;48.65;99083.59;5071863;28;20016;-72
2022/07/19 00:24:15;;;;;;;10.45;4.15;;;;;;;19.01;48.75;99088.81;5090815;28;20024;-72
2022/07/19 00:26:41;;;;;;;9.25;4.20;;;;;;;19.00;49.17;99087.19;5090763;28;20028;-73
2022/07/19 00:29:07;;;;;;;9.13;4.35;;;;;;;18.96;48.85;99083.44;5090778;28;20035;-72
2022/07/19 00:31:32;;;;;;;8.65;4.07;;;;;;;18.92;48.76;99079.72;5090648;28;20114;-79
2022/07/19 00:33:57;;;;;;;6.75;4.05;;;;;;;18.91;49.06;99086.41;5072641;28;20123;-76
2022/07/19 00:36:23;;;;;;;8.23;4.05;;;;;;;18.88;49.50;99084.31;5090555;28;20395;-76
2022/07/19 00:38:48;;;;;;;7.47;4.28;;;;;;;18.86;49.17;99086.63;5090004;28;20519;-75
2022/07/19 00:41:15;;;;;;;7.85;4.25;;;;;;;18.84;49.08;99081.38;5090978;28;20032;-80
2022/07/19 00:43:41;;;;;;;9.40;3.80;;;;;;;18.84;49.36;99081.38;5090913;28;20028;-79
2022/07/19 00:46:17;;;;;;;8.98;3.95;;;;;;;18.84;49.31;99078.59;5090577;28;20036;-80
2022/07/19 00:48:43;;;;;;;6.72;3.92;;;;;;;18.85;49.56;99087.75;5089781;28;20746;-79
2022/07/19 00:51:11;;;;;;;6.97;3.70;;;;;;;18.82;49.38;99080.91;5090712;28;20108;-79
2022/07/19 00:53:37;;;;;;;6.10;3.40;;;;;;;18.81;49.43;99084.81;5090646;28;20020;-81
2022/07/19 00:56:08;;;;;;;6.45;3.63;;;;;;;18.79;49.64;99087.13;5089946;28;20027;-81
2022/07/19 00:58:34;;;;;;;6.85;3.47;;;;;;;18.79;49.62;99083.53;5090311;28;20022;-80
2022/07/19 01:01:01;;;;;;;7.22;3.63;;;;;;;18.77;49.46;99088.63;5090273;28;20028;-81
2022/07/19 01:03:27;;;;;;;6.82;3.55;;;;;;;18.72;49.80;99092.41;5090983;28;20026;-80
2022/07/19 01:05:52;;;;;;;6.97;3.50;;;;;;;18.68;49.74;99089.47;5090489;28;20020;-81
2022/07/19 01:08:18;;;;;;;7.25;3.85;;;;;;;18.65;50.00;99092.94;5090572;28;20113;-81
2022/07/19 01:10:44;;;;;;;7.43;4.05;;;;;;;18.60;50.17;99087.56;5090321;28;20107;-80
2022/07/19 01:13:13;;;;;;;7.45;3.97;;;;;;;18.55;49.86;99093.28;5090421;28;20024;-79
2022/07/19 01:15:40;;;;;;;6.70;3.92;;;;;;;18.49;50.20;99091.88;5090304;28;20035;-81
2022/07/19 01:18:05;;;;;;;8.43;3.88;;;;;;;18.41;50.45;99091.56;5087508;28;20075;-81
2022/07/19 01:20:31;;;;;;;8.35;4.10;;;;;;;18.33;50.58;99092.41;5090578;28;20101;-80
2022/07/19 01:22:56;;;;;;;9.63;4.45;;;;;;;18.27;50.72;99093.75;5089795;28;20042;-80
2022/07/19 01:25:23;;;;;;;7.40;4.07;;;;;;;18.21;50.98;99086.75;5071523;28;20083;-80
2022/07/19 01:27:49;;;;;;;5.72;3.80;;;;;;;18.15;50.61;99091.66;5088566;28;20028;-79
2022/07/19 01:30:25;;;;;;;7.95;4.45;;;;;;;18.10;51.10;99087.13;5090338;28;20024;-78
2022/07/19 01:32:51;;;;;;;8.13;4.20;;;;;;;18.04;51.37;99082.06;5089865;28;20145;-80
2022/07/19 01:35:17;;;;;;;10.73;4.30;;;;;;;17.96;51.87;99076.16;5087578;28;20032;-72
2022/07/19 01:37:42;;;;;;;8.18;4.32;;;;;;;17.92;51.61;99069.69;5089580;28;20028;-73
2022/07/19 01:40:11;;;;;;;7.57;3.83;;;;;;;17.89;51.90;99073.13;5071615;28;20519;-74
2022/07/19 01:42:38;;;;;;;7.65;4.53;;;;;;;17.86;51.95;99071.00;5071908;28;20031;-73
2022/07/19 01:45:05;;;;;;;10.40;4.00;;;;;;;17.83;52.06;99069.69;5089755;28;20020;-76
2022/07/19 01:47:30;;;;;;;7.20;4.65;;;;;;;17.81;52.41;99071.16;5072173;28;20526;-75
2022/07/19 01:49:56;;;;;;;9.27;4.88;;;;;;;17.76;52.40;99072.13;5089398;28;20020;-76
2022/07/19 01:52:21;;;;;;;10.43;5.05;;;;;;;17.71;52.38;99072.34;5090846;28;20025;-76
2022/07/19 01:54:47;;;;;;;7.00;4.18;;;;;;;17.70;52.34;99073.47;5089528;28;20028;-76
2022/07/19 01:57:12;;;;;;;8.75;4.55;;;;;;;17.68;52.61;99070.22;5090481;28;20107;-75
2022/07/19 01:59:39;;;;;;;7.88;4.25;;;;;;;17.66;52.57;99069.72;5091292;28;20063;-76
2022/07/19 02:02:05;;;;;;;9.13;4.70;;;;;;;17.64;52.70;99063.69;5090610;28;20125;-75
2022/07/19 02:04:31;;;;;;;10.23;4.63;;;;;;;17.61;52.83;99075.44;5091375;28;20024;-75
2022/07/19 02:06:57;;;;;;;9.27;4.05;;;;;;;17.55;52.73;99078.38;5089333;28;20441;-75
2022/07/19 02:09:22;;;;;;;8.98;4.63;;;;;;;17.53;53.06;99079.84;5088824;28;20040;-76
2022/07/19 02:11:48;;;;;;;7.20;4.45;;;;;;;17.48;52.80;99078.06;5090039;28;20124;-76
2022/07/19 02:14:13;;;;;;;7.63;4.50;;;;;;;17.45;53.24;99083.47;5091047;28;20591;-75
2022/07/19 02:16:39;;;;;;;8.27;4.57;;;;;;;17.44;53.30;99079.84;5091033;28;20089;-76
2022/07/19 02:19:06;;;;;;;8.52;4.63;;;;;;;17.40;53.26;99084.41;5071953;28;20110;-75
2022/07/19 02:21:32;;;;;;;8.80;4.72;;;;;;;17.36;53.26;99089.81;5089996;28;20547;-75
2022/07/19 02:23:58;;;;;;;10.13;5.03;;;;;;;17.32;53.53;99088.84;5090451;28;20028;-76
2022/07/19 02:26:23;;;;;;;8.25;5.00;;;;;;;17.29;53.56;99080.38;5086664;28;20089;-76
2022/07/19 02:28:49;;;;;;;7.97;4.80;;;;;;;17.19;53.71;99085.09;5090155;28;20062;-76
2022/07/19 02:31:14;;;;;;;10.40;5.03;;;;;;;17.11;53.88;99075.63;5089872;28;20036;-75
2022/07/19 02:33:40;;;;;;;7.53;4.65;;;;;;;17.06;54.14;99086.88;5086896;28;20119;-75
2022/07/19 02:36:05;;;;;;;9.13;5.18;;;;;;;17.01;53.88;99075.09;5090318;28;20111;-76
2022/07/19 02:38:31;;;;;;;9.73;5.43;;;;;;;16.98;54.38;99084.06;5089668;28;20407;-76
2022/07/19 02:40:57;;;;;;;8.90;4.68;;;;;;;16.93;54.15;99088.59;5089538;28;20039;-76
2022/07/19 02:43:22;;;;;;;8.90;4.47;;;;;;;16.91;54.48;99079.78;5087951;28;20040;-76
2022/07/19 02:45:48;;;;;;;7.90;4.18;;;;;;;16.87;54.57;99081.59;5070936;28;20031;-75
2022/07/19 02:48:13;;;;;;;7.68;4.40;;;;;;;16.86;54.83;99092.97;5089963;28;20034;-75
2022/07/19 02:50:39;;;;;;;9.63;4.45;;;;;;;16.80;54.77;99090.34;5090433;28;20407;-76
2022/07/19 02:53:04;;;;;;;8.85;4.47;;;;;;;16.77;54.84;99092.97;5090318;28;20103;-75
2022/07/19 02:55:31;;;;;;;9.60;4.88;;;;;;;16.73;55.02;99083.66;5088912;28;20024;-76
2022/07/19 02:57:56;;;;;;;6.82;4.20;;;;;;;16.70;55.16;99081.53;5090050;28;20032;-76
2022/07/19 03:00:22;;;;;;;8.02;4.35;;;;;;;16.67;55.40;99080.25;5090566;28;20035;-75
2022/07/19 03:02:47;;;;;;;7.53;4.20;;;;;;;16.65;55.01;99086.09;5090542;28;20028;-74
2022/07/19 03:05:13;;;;;;;8.13;4.38;;;;;;;16.63;55.54;99076.50;5090874;28;20030;-75
2022/07/19 03:07:38;;;;;;;9.00;4.45;;;;;;;16.60;55.02;99083.47;5090651;28;20107;-76
2022/07/19 03:10:05;;;;;;;7.07;4.15;;;;;;;16.57;55.25;99095.19;5090277;28;20060;-76
2022/07/19 03:12:30;;;;;;;9.45;4.18;;;;;;;16.55;55.46;99094.69;5090511;28;20038;-76
2022/07/19 03:14:56;;;;;;;7.68;4.15;;;;;;;16.54;55.32;99095.81;5088294;28;20029;-76
2022/07/19 03:17:21;;;;;;;10.73;4.72;;;;;;;16.54;55.55;99103.34;5072139;28;20054;-76
2022/07/19 03:19:47;;;;;;;7.88;4.47;;;;;;;16.52;55.63;99109.16;5090249;28;20087;-76
2022/07/19 03:22:12;;;;;;;8.57;4.47;;;;;;;16.50;55.90;99105.94;5090579;28;20031;-76
2022/07/19 03:24:38;;;;;;;6.43;3.80;;;;;;;16.50;56.12;99105.94;5090858;28;20162;-76
2022/07/19 03:27:03;;;;;;;7.78;4.32;;;;;;;16.47;55.53;99104.59;5088315;28;20475;-75
2022/07/19 03:29:29;;;;;;;7.93;4.32;;;;;;;16.46;56.08;99113.25;5072305;28;20040;-75
2022/07/19 03:31:54;;;;;;;8.95;4.03;;;;;;;16.45;55.88;99112.41;5089937;28;20057;-76
2022/07/19 03:34:20;;;;;;;8.57;4.40;;;;;;;16.42;56.16;99115.00;5090650;28;20028;-75
2022/07/19 03:36:45;;;;;;;9.25;4.70;;;;;;;16.43;56.19;99111.91;5086468;28;20028;-76
2022/07/19 03:39:11;;;;;;;9.60;5.05;;;;;;;16.44;56.03;99112.75;5090240;28;20032;-75
2022/07/19 03:41:36;;;;;;;7.75;4.80;;;;;;;16.44;56.66;99112.75;5090326;28;20111;-75
2022/07/19 03:44:01;;;;;;;9.80;4.40;;;;;;;16.45;56.85;99115.19;5089117;28;20032;-75
2022/07/19 03:46:28;;;;;;;7.47;4.70;;;;;;;16.46;56.89;99113.25;5089722;28;20032;-76
2022/07/19 03:48:54;;;;;;;9.05;4.45;;;;;;;16.47;56.36;99117.66;5091811;28;20746;-74
2022/07/19 03:51:20;;;;;;;6.75;4.15;;;;;;;16.49;56.75;99118.16;5094456;28;20024;-75
2022/07/19 03:53:46;;;;;;;7.32;4.50;;;;;;;16.51;56.83;99113.06;5094170;28;20498;-75
2022/07/19 03:56:12;;;;;;;9.95;4.90;;;;;;;16.52;56.96;99121.06;5076195;28;20055;-75
2022/07/19 03:58:37;;;;;;;10.23;4.82;;;;;;;16.54;56.80;99119.94;5093686;28;20170;-76
2022/07/19 04:01:03;;;;;;;9.63;4.43;;;;;;;16.56;57.41;99129.53;5072558;28;20024;-76
2022/07/19 04:03:29;;;;;;;8.80;4.65;;;;;;;16.57;57.23;99122.06;5094488;28;20032;-75
2022/07/19 04:05:54;;;;;;;9.40;4.53;;;;;;;16.59;57.31;99122.56;5094221;28;20034;-75
2022/07/19 04:08:20;;;;;;;9.38;4.40;;;;;;;16.61;57.05;99123.06;5092221;28;20048;-75
2022/07/19 04:10:46;;;;;;;8.52;5.00;;;;;;;16.65;57.19;99124.06;5076020;28;20119;-75
2022/07/19 04:13:11;;;;;;;9.45;4.90;;;;;;;16.69;57.41;99127.81;5093758;28;20060;-75
2022/07/19 04:15:37;;;;;;;8.77;4.53;;;;;;;16.73;57.17;99122.44;5094208;28;20062;-76
2022/07/19 04:18:02;;;;;;;9.13;5.00;;;;;;;16.75;57.21;99126.50;5092744;28;20109;-75
2022/07/19 04:20:28;;;;;;;11.23;5.15;;;;;;;16.79;57.65;99121.97;5093032;28;20055;-76
2022/07/19 04:22:53;;;;;;;11.57;5.22;;;;;;;16.83;57.79;99113.84;5093482;28;20055;-77
2022/07/19 04:25:19;;;;;;;8.85;5.20;;;;;;;16.85;57.77;99124.59;5104790;28;20032;-84
2022/07/19 04:27:45;;;;;;;9.02;5.10;;;;;;;16.86;57.49;99115.97;5097084;28;20030;-78
2022/07/19 04:30:11;;;;;;;9.27;5.45;;;;;;;16.86;57.84;99113.22;5093692;28;20047;-79
2022/07/19 04:32:37;;;;;;;9.50;5.55;;;;;;;16.88;57.53;99121.19;5092363;28;20039;-78
2022/07/19 04:35:02;;;;;;;10.98;5.20;;;;;;;16.92;57.49;99111.09;5093296;28;20042;-78
2022/07/19 04:37:28;;;;;;;15.10;6.63;;;;;;;16.94;57.66;99114.34;5093746;28;20036;-78
2022/07/19 04:39:53;;;;;;;19.63;6.68;;;;;;;16.95;57.91;99113.22;5092265;28;20422;-80
2022/07/19 04:42:19;;;;;;;14.68;7.28;;;;;;;16.96;57.64;99114.88;5093950;28;20074;-79
2022/07/19 04:44:44;;;;;;;13.52;5.93;;;;;;;16.97;57.78;99116.50;5075943;28;20456;-78
2022/07/19 04:47:10;;;;;;;14.00;5.60;;;;;;;16.98;57.62;99109.84;5091444;28;20586;-78
2022/07/19 04:49:36;;;;;;;9.88;5.00;;;;;;;17.00;57.79;99109.50;5093818;28;20025;-78
2022/07/19 04:52:01;;;;;;;10.57;4.50;;;;;;;17.03;57.42;99098.59;5093620;28;20028;-79
2022/07/19 04:54:27;;;;;;;9.32;4.53;;;;;;;17.08;57.87;99117.00;5089184;28;20534;-80
2022/07/19 04:56:52;;;;;;;8.82;4.40;;;;;;;17.11;58.14;99110.81;5092934;28;20027;-79
2022/07/19 04:59:18;;;;;;;7.85;4.07;;;;;;;17.16;57.87;99109.84;5075577;28;20361;-86
2022/07/19 05:01:44;;;;;;;7.57;4.40;;;;;;;17.22;57.59;99114.09;5092693;28;20056;-85
2022/07/19 05:04:09;;;;;;;10.18;4.03;;;;;;;17.29;58.05;99116.41;5094608;28;20020;-85
2022/07/19 05:06:35;;;;;;;8.18;3.88;;;;;;;17.36;57.80;99119.47;5095535;28;20016;-87
2022/07/19 05:09:00;;;;;;;8.65;4.35;;;;;;;17.43;57.36;99119.00;5095155;28;20109;-86
2022/07/19 05:11:26;;;;;;;8.48;3.95;;;;;;;17.52;57.71;99117.06;5094582;28;20032;-85
2022/07/19 05:13:51;;;;;;;6.93;4.40;;;;;;;17.59;57.46;99116.56;5097430;28;20418;-84
2022/07/19 05:16:17;;;;;;;9.55;4.10;;;;;;;17.68;57.35;99120.94;5096180;28;20018;-86
2022/07/19 05:18:42;;;;;;;6.60;3.88;;;;;;;17.79;57.55;99115.06;5095087;28;20019;-87
2022/07/19 05:21:07;;;;;;;6.38;3.72;;;;;;;17.89;57.40;99105.59;5094342;28;20085;-86
2022/07/19 05:23:33;;;;;;;5.85;3.60;;;;;;;17.98;57.25;99109.97;5093928;28;20032;-84
2022/07/19 05:25:58;;;;;;;8.40;4.20;;;;;;;18.09;57.06;99109.66;5095390;28;20037;-84
2022/07/19 05:28:24;;;;;;;5.80;3.80;;;;;;;18.19;56.76;99111.25;5096270;28;20020;-84
2022/07/19 05:30:49;;;;;;;7.57;3.80;;;;;;;18.27;56.74;99110.41;5094955;28;20016;-85
2022/07/19 05:33:16;;;;;;;7.72;4.10;;;;;;;18.32;56.61;99107.44;5094845;28;20017;-84
2022/07/19 05:35:41;;;;;;;6.85;4.03;;;;;;;18.40;56.55;99111.34;5093911;28;20024;-87
2022/07/19 05:38:07;;;;;;;7.18;4.45;;;;;;;18.47;56.78;99110.84;5093171;28;20028;-88
2022/07/19 05:40:32;;;;;;;9.88;4.30;;;;;;;18.54;56.56;99113.91;5076979;28;20030;-86
2022/07/19 05:42:58;;;;;;;8.93;3.95;;;;;;;18.62;56.37;99107.47;5094468;28;20380;-86
2022/07/19 05:45:23;;;;;;;9.70;4.18;;;;;;;18.72;56.29;99106.31;5094180;28;20020;-87
2022/07/19 05:47:49;;;;;;;7.75;4.10;;;;;;;18.82;56.37;99108.69;5093938;28;20078;-86
2022/07/19 05:50:14;;;;;;;8.77;3.90;;;;;;;18.93;55.97;99108.31;5094298;28;20017;-87
2022/07/19 05:52:39;;;;;;;7.88;3.75;;;;;;;19.02;55.98;99111.88;5093201;28;20472;-86
2022/07/19 05:55:06;;;;;;;7.50;3.63;;;;;;;19.13;55.83;99106.72;5091906;28;20020;-86
2022/07/19 05:57:31;;;;;;;8.32;3.55;;;;;;;19.22;55.73;99110.28;5093772;28;20422;-87
2022/07/19 05:59:57;;;;;;;8.70;3.95;;;;;;;19.31;55.32;99115.75;5092938;28;20111;-87
2022/07/19 06:02:24;;;;;;;6.35;3.53;;;;;;;19.40;55.61;99110.94;5093133;28;20028;-87
2022/07/19 06:04:51;;;;;;;9.13;3.92;;;;;;;19.48;55.09;99107.28;5091652;28;20068;-84
2022/07/19 06:07:16;;;;;;;8.57;3.97;;;;;;;19.59;54.97;99110.47;5076238;28;20545;-88
2022/07/19 06:09:41;;;;;;;8.07;3.47;;;;;;;19.67;54.90;99113.50;5094009;28;20025;-84
2022/07/19 06:12:07;;;;;;;9.50;3.95;;;;;;;19.78;54.42;99112.75;5091884;28;20065;-84
2022/07/19 06:14:32;;;;;;;8.30;4.00;;;;;;;19.88;54.14;99107.91;5073240;28;20032;-85
2022/07/19 06:16:59;;;;;;;6.75;3.47;;;;;;;19.99;54.21;99108.31;5094112;28;20111;-86
2022/07/19 06:19:25;;;;;;;7.88;3.72;;;;;;;20.08;53.98;99109.03;5093347;28;20054;-88
2022/07/19 06:21:51;;;;;;;7.82;3.72;;;;;;;20.20;53.83;99102.69;5092996;28;20074;-87
2022/07/19 06:24:16;;;;;;;7.47;3.72;;;;;;;20.29;53.66;99095.03;5093483;28;20103;-88
2022/07/19 06:26:41;;;;;;;9.13;3.90;;;;;;;20.41;53.54;99096.19;5093855;28;20016;-89
2022/07/19 06:29:07;;;;;;;7.28;3.53;;;;;;;20.51;53.41;99093.78;5093809;28;20027;-90
2022/07/19 06:31:32;;;;;;;8.95;3.83;;;;;;;20.60;53.31;99098.41;5092718;28;20411;-88
2022/07/19 06:33:58;;;;;;;11.73;4.25;;;;;;;20.68;53.10;99094.69;5092832;28;20073;-88
2022/07/19 06:36:23;;;;;;;9.32;3.75;;;;;;;20.79;53.10;99097.84;5093172;28;20517;-85
2022/07/19 06:38:49;;;;;;;10.65;4.00;;;;;;;20.88;52.79;99090.19;5092678;28;20119;-86
2022/07/19 06:41:16;;;;;;;9.13;3.90;;;;;;;20.98;52.93;99097.28;5092609;28;20038;-88
2022/07/19 06:43:42;;;;;;;9.07;3.72;;;;;;;21.08;52.76;99093.97;5091301;28;20044;-85
2022/07/19 06:46:08;;;;;;;7.57;3.65;;;;;;;21.19;52.58;99099.91;5088861;28;20032;-80
2022/07/19 06:48:33;;;;;;;7.63;3.58;;;;;;;21.29;52.56;99098.59;5087725;28;20032;-82
2022/07/19 06:50:59;;;;;;;8.85;3.85;;;;;;;21.38;52.28;99104.03;5090974;28;20495;-79
2022/07/19 06:53:25;;;;;;;8.63;3.65;;;;;;;21.47;51.99;99103.88;5073414;28;20423;-84
2022/07/19 06:55:50;;;;;;;8.80;3.25;;;;;;;21.59;51.81;99098.25;5091326;28;20057;-81
2022/07/19 06:58:16;;;;;;;7.80;3.50;;;;;;;21.66;50.40;99101.28;5091071;28;20031;-80
2022/07/19 07:00:42;;;;;;;8.10;3.35;;;;;;;21.72;50.86;99101.84;5092746;28;20035;-79
2022/07/19 07:03:08;;;;;;;5.72;3.15;;;;;;;21.81;49.93;99101.69;5092359;28;20059;-80
2022/07/19 07:05:34;;;;;;;7.45;3.35;;;;;;;21.88;50.13;99101.88;5091389;28;20117;-79
2022/07/19 07:08:00;;;;;;;9.43;3.58;;;;;;;21.97;50.22;99098.94;5090485;28;20039;-80
2022/07/19 07:10:25;;;;;;;7.22;3.00;;;;;;;22.04;49.62;99096.31;5091457;28;20019;-80
2022/07/19 07:12:51;;;;;;;4.72;2.95;;;;;;;22.13;49.78;99096.19;5091095;28;20032;-80
2022/07/19 07:15:16;;;;;;;6.05;3.13;;;;;;;22.22;49.68;99098.78;5091296;28;20111;-81
2022/07/19 07:17:42;;;;;;;5.75;3.20;;;;;;;22.31;49.38;99099.44;5090848;28;20115;-79
2022/07/19 07:20:08;;;;;;;7.15;3.13;;;;;;;22.38;49.42;99093.19;5091092;28;20048;-80
2022/07/19 07:22:34;;;;;;;7.43;3.08;;;;;;;22.46;49.47;99092.25;5089013;28;20373;-80
2022/07/19 07:25:00;;;;;;;5.63;3.08;;;;;;;22.58;46.83;99092.16;5090434;28;20028;-80
2022/07/19 07:27:25;;;;;;;6.30;2.80;;;;;;;22.65;47.10;99087.88;5085976;28;20046;-76
2022/07/19 07:29:51;;;;;;;5.43;2.60;;;;;;;22.73;47.44;99090.53;5088964;28;20027;-78
2022/07/19 07:32:17;;;;;;;11.93;2.85;;;;;;;22.85;46.93;99088.75;5088873;28;20047;-74
2022/07/19 07:34:45;;;;;;;7.75;3.30;;;;;;;22.93;46.92;99098.94;5088185;28;20170;-75
2022/07/19 07:37:10;;;;;;;7.00;2.75;;;;;;;23.02;47.22;99099.56;5086095;28;20141;-75
2022/07/19 07:39:36;;;;;;;5.57;2.60;;;;;;;23.10;46.55;99103.31;5071958;28;20115;-79
2022/07/19 07:42:03;;;;;;;5.07;2.60;;;;;;;23.16;46.84;99104.66;5072649;28;20032;-78
2022/07/19 07:44:29;;;;;;;6.10;2.88;;;;;;;23.25;46.53;99098.09;5090177;28;20033;-77
2022/07/19 07:46:54;;;;;;;8.48;3.33;;;;;;;23.33;46.14;99092.28;5090580;28;20493;-76
2022/07/19 07:49:20;;;;;;;6.15;2.67;;;;;;;23.42;46.11;99094.88;5089978;28;20127;-78
2022/07/19 07:51:46;;;;;;;6.82;2.92;;;;;;;23.51;46.19;99097.44;5087627;28;20047;-77
2022/07/19 07:54:12;;;;;;;5.07;2.35;;;;;;;23.61;45.72;99088.47;5087415;28;20416;-79
2022/07/19 07:56:37;;;;;;;4.85;2.83;;;;;;;23.71;45.83;99089.03;5089463;28;20548;-78
2022/07/19 07:59:03;;;;;;;5.55;2.08;;;;;;;23.80;44.90;99084.00;5089358;28;20034;-78
2022/07/19 08:01:29;;;;;;;6.22;2.53;;;;;;;23.87;44.60;99081.34;5089558;28;20495;-81
2022/07/19 08:03:55;;;;;;;4.00;2.40;;;;;;;23.94;44.69;99080.66;5089562;28;20027;-77
2022/07/19 08:06:20;;;;;;;4.00;2.10;;;;;;;24.03;43.73;99086.09;5089624;28;20073;-77
2022/07/19 08:08:46;;;;;;;4.53;1.90;;;;;;;24.08;43.67;99072.56;5089416;28;20028;-78
2022/07/19 08:11:11;;;;;;;3.95;1.90;;;;;;;24.18;43.41;99081.53;5087952;28;20032;-82
2022/07/19 08:13:37;;;;;;;3.42;1.67;;;;;;;24.26;42.92;99080.47;5088173;28;20032;-81
2022/07/19 08:16:02;;;;;;;4.35;2.10;;;;;;;24.33;42.25;99080.59;5071509;28;20119;-83
2022/07/19 08:18:28;;;;;;;4.00;2.00;;;;;;;24.42;40.99;99083.16;5089008;28;20597;-81
2022/07/19 08:20:53;;;;;;;4.93;1.80;;;;;;;24.48;40.55;99078.03;5089466;28;20044;-78
2022/07/19 08:23:19;;;;;;;5.72;2.03;;;;;;;24.56;40.96;99074.19;5088636;28;20053;-76
2022/07/19 08:25:44;;;;;;;4.68;1.80;;;;;;;24.63;40.25;99070.66;5084804;28;20039;-83
2022/07/19 08:28:09;;;;;;;7.13;1.60;;;;;;;24.69;40.60;99077.56;5088503;28;20034;-80
2022/07/19 08:30:35;;;;;;;4.60;1.45;;;;;;;24.78;39.68;99071.72;5089632;28;20028;-87
2022/07/19 08:33:01;;;;;;;3.80;2.00;;;;;;;24.82;39.47;99070.59;5090264;28;20111;-84
2022/07/19 08:35:26;;;;;;;4.13;1.50;;;;;;;24.91;39.47;99073.13;5090579;28;20036;-85
2022/07/19 08:37:52;;;;;;;4.38;1.65;;;;;;;24.99;39.41;99078.84;5090306;28;20543;-86
2022/07/19 08:40:17;;;;;;;3.20;1.63;;;;;;;25.05;38.25;99075.31;5070829;28;20036;-83
2022/07/19 08:42:43;;;;;;;5.13;1.90;;;;;;;25.11;38.11;99075.78;5092203;28;20456;-84
2022/07/19 08:45:10;;;;;;;3.20;1.88;;;;;;;25.18;36.87;99075.09;5090698;28;20023;-79
2022/07/19 08:47:37;;;;;;;5.30;1.65;;;;;;;25.25;36.31;99073.19;5090554;28;20085;-78
2022/07/19 08:50:06;;;;;;;5.43;1.52;;;;;;;25.32;35.19;99080.09;5090986;28;20020;-78
2022/07/19 08:52:32;;;;;;;4.55;1.90;;;;;;;25.37;36.28;99074.94;5068367;28;20624;-83
2022/07/19 08:54:58;;;;;;;3.42;1.80;;;;;;;25.43;36.21;99078.25;5091734;28;20388;-81
2022/07/19 09:00:09;;;;;;;5.60;1.70;;;;;;;25.52;36.64;99075.94;5090015;28;20039;-83
2022/07/19 09:02:36;;;;;;;2.58;1.38;;;;;;;25.59;36.55;99071.63;5089050;28;20514;-79
2022/07/19 09:05:10;;;;;;;3.00;1.60;;;;;;;25.67;37.15;99070.50;5091923;28;20032;-77
2022/07/19 09:07:39;;;;;;;3.78;1.58;;;;;;;25.75;36.58;99077.00;5085919;28;20111;-80
2022/07/19 09:10:16;;;;;;;4.15;2.05;;;;;;;25.82;36.39;99072.31;5087316;28;20020;-77
2022/07/19 09:13:10;;;;;;;3.45;1.85;;;;;;;25.88;36.41;99078.38;5090396;28;20032;-79
2022/07/19 09:15:36;;;;;;;2.67;1.58;;;;;;;25.98;36.65;99069.25;5091166;28;20024;-79
2022/07/19 09:18:16;;;;;;;2.53;1.50;;;;;;;26.04;36.50;99068.91;5088245;28;20494;-74
2022/07/19 09:20:43;;;;;;;3.38;1.95;;;;;;;26.06;35.07;99066.53;5089313;28;20048;-75
2022/07/19 09:23:09;;;;;;;3.92;1.90;;;;;;;26.12;35.33;99062.97;5072479;28;20036;-79
2022/07/19 09:25:40;;;;;;;3.85;1.83;;;;;;;26.18;35.24;99062.63;5089521;28;20039;-79
2022/07/19 09:28:06;;;;;;;3.08;1.95;;;;;;;26.25;35.04;99073.97;5089486;28;20084;-78
2022/07/19 09:30:44;;;;;;;2.40;1.77;;;;;;;26.29;35.49;99063.53;5089393;28;20453;-81
2022/07/19 09:33:15;;;;;;;2.75;1.60;;;;;;;26.42;36.12;99066.88;5071065;28;20027;-81
2022/07/19 09:35:47;;;;;;;4.35;2.03;;;;;;;26.48;35.77;99058.88;5090551;28;20066;-83
2022/07/19 09:38:20;;;;;;;2.47;1.55;;;;;;;26.57;35.75;99059.34;5070578;28;20043;-82
2022/07/19 09:40:47;;;;;;;5.00;1.90;;;;;;;26.70;36.17;99049.38;5090869;28;20023;-83
2022/07/19 09:43:13;;;;;;;3.83;1.80;;;;;;;26.78;35.82;99047.44;5089592;28;20032;-74
2022/07/19 09:45:39;;;;;;;4.70;2.00;;;;;;;26.87;36.12;99047.13;5089653;28;20051;-75
2022/07/19 09:48:04;;;;;;;3.22;1.60;;;;;;;26.92;35.95;99041.13;5090104;28;20031;-75
2022/07/19 09:50:30;;;;;;;3.72;1.58;;;;;;;26.97;34.99;99043.56;5091119;28;20024;-75
2022/07/19 09:53:02;;;;;;;4.50;1.75;;;;;;;27.02;34.92;99053.63;5089432;28;20025;-74
2022/07/19 09:55:28;;;;;;;5.05;1.90;;;;;;;27.03;34.62;99044.81;5088595;28;20024;-75
2022/07/19 09:57:57;;;;;;;4.43;1.70;;;;;;;27.01;34.24;99050.03;5088412;28;20073;-76
2022/07/19 10:00:24;;;;;;;3.80;1.83;;;;;;;27.05;33.45;99047.22;5088558;28;20040;-77
2022/07/19 10:02:55;;;;;;;3.72;2.00;;;;;;;27.14;33.39;99044.03;5066409;28;20033;-77
2022/07/19 10:05:22;;;;;;;5.25;1.90;;;;;;;27.19;31.50;99049.28;5088340;28;20035;-76
2022/07/19 10:07:48;;;;;;;5.53;2.20;;;;;;;27.24;32.82;99051.72;5088945;28;20119;-75
2022/07/19 10:10:16;;;;;;;2.92;1.60;;;;;;;27.28;32.63;99051.75;5089013;28;20052;-79
2022/07/19 10:12:43;;;;;;;2.67;1.70;;;;;;;27.27;32.40;99044.53;5089553;28;20058;-73
2022/07/19 10:15:11;;;;;;;3.95;1.80;;;;;;;27.29;32.52;99042.91;5089671;28;20294;-75
2022/07/19 10:17:44;;;;;;;3.03;1.97;;;;;;;27.30;32.66;99041.72;5089376;28;20034;-78
2022/07/19 10:20:10;;;;;;;3.22;1.90;;;;;;;27.34;31.51;99036.06;5088467;28;20048;-80
2022/07/19 10:22:39;;;;;;;2.78;1.75;;;;;;;27.38;32.23;99042.53;5089737;28;20039;-77
2022/07/19 10:25:05;;;;;;;4.40;1.80;;;;;;;27.43;31.27;99044.97;5090567;28;20048;-80
2022/07/19 10:27:30;;;;;;;5.10;1.73;;;;;;;27.52;31.88;99041.81;5086008;28;20063;-78
2022/07/19 10:29:58;;;;;;;3.75;1.73;;;;;;;27.57;32.21;99044.25;5087384;28;20031;-78
2022/07/19 10:32:29;;;;;;;3.97;1.87;;;;;;;27.64;32.78;99041.44;5086313;28;20032;-77
2022/07/19 10:35:22;;;;;;;3.00;1.70;;;;;;;27.80;33.23;99043.09;5088243;28;20062;-78
2022/07/19 10:37:51;;;;;;;2.95;1.77;;;;;;;27.95;33.30;99043.94;5086144;28;20036;-79
2022/07/19 10:40:56;;;;;;;3.80;1.80;;;;;;;28.04;32.87;99035.09;5087076;28;20054;-78
2022/07/19 10:43:23;;;;;;;4.13;2.00;;;;;;;28.14;32.40;99033.50;4981470;28;20305;-76
2022/07/19 10:46:01;;;;;;;5.80;1.88;;;;;;;28.20;31.54;99031.91;4986018;28;20030;-78
2022/07/19 10:49:03;;;;;;;4.07;2.40;;;;;;;28.21;31.76;99025.88;5043480;28;20119;-78
2022/07/19 10:51:34;;;;;;;2.60;1.88;;;;;;;28.28;31.56;99025.06;5083850;28;20127;-78
2022/07/19 10:54:06;;;;;;;3.83;2.10;;;;;;;28.31;30.92;99026.28;5087082;28;20138;-73
2022/07/19 10:56:40;;;;;;;2.30;1.73;;;;;;;28.38;31.08;99023.44;5069532;28;20047;-80
2022/07/19 10:59:11;;;;;;;6.00;1.85;;;;;;;28.49;31.94;99027.06;5086312;28;20027;-76
2022/07/19 11:01:39;;;;;;;3.28;1.90;;;;;;;28.59;31.48;99019.00;5087875;28;20017;-76
2022/07/19 11:04:34;;;;;;;4.25;1.85;;;;;;;28.62;31.51;99018.19;5087589;28;20043;-80
2022/07/19 11:07:32;;;;;;;6.95;1.85;;;;;;;28.73;32.03;99010.50;5086260;28;20047;-79
2022/07/19 11:09:58;;;;;;;4.57;1.77;;;;;;;28.86;31.15;99010.91;5030624;28;20036;-80
2022/07/19 11:12:46;;;;;;;5.80;1.85;;;;;;;28.94;31.48;99015.31;5085536;28;20087;-77
2022/07/19 11:15:12;;;;;;;3.00;2.20;;;;;;;29.07;31.58;99009.22;5088097;28;20039;-80
2022/07/19 11:17:37;;;;;;;3.58;2.05;;;;;;;29.14;31.57;99016.88;5089118;28;20046;-79
2022/07/19 11:20:07;;;;;;;4.55;1.90;;;;;;;29.16;30.66;99009.59;5069737;28;20043;-78
2022/07/19 11:22:51;;;;;;;4.13;1.75;;;;;;;29.13;29.63;99012.44;5086379;28;20035;-77
2022/07/19 11:25:27;;;;;;;3.08;1.90;;;;;;;29.08;30.48;99003.19;5088179;28;20020;-76
2022/07/19 11:27:53;;;;;;;5.05;2.03;;;;;;;29.14;30.16;98999.94;5084444;28;20046;-80
2022/07/19 11:30:22;;;;;;;2.40;1.98;;;;;;;29.19;30.60;99000.31;5085273;28;20788;-77
2022/07/19 11:32:59;;;;;;;3.90;1.98;;;;;;;29.22;29.67;98998.66;5086857;28;20030;-78